(°C)
19°
17°
16°
15°
15°
14°
14°
(°C)
17°
16°
15°
14°
14°
13°
13°
NE
ENE
ENE
ENE
ENE
ENE
ENE
(km/h)
6-11
6-13
6-12
6-11
5-11
5-11
5-11
(mm)
0
0
0
0
0
0
0
(%)
0
0
0
0
0
0
0

Elevazione del sole

/ -5.2°
sun-icon
UV 4
05:04
20:19
Gibbosa crescente (117°)
16:42
24:00

METAR per 52.17°N 20.97°E (EPWA)

Ora Condizioni Temperatura/
Punto di rugiada
Vento Visibilità Meteo Nuvole Pressione Cambiamento Grezzo
VFR 18°C / 9°C 100º 4kt >10km - Clouds and Visibility OK 1023 No Significant change EPWA 071830Z 10004KT CAVOK 18/09 Q1023 NOSIG
VFR 21°C / 8°C 100º 5kt >10km - Clouds and Visibility OK 1023 No Significant change EPWA 071800Z 10005KT CAVOK 21/08 Q1023 NOSIG
VFR 21°C / 8°C 100º variable 050º to 130º 5kt >10km - Clouds and Visibility OK 1023 No Significant change EPWA 071730Z 10005KT 050V130 CAVOK 21/08 Q1023 NOSIG
VFR 21°C / 8°C 60º variable 340º to 120º 5kt >10km - Clouds and Visibility OK 1023 No Significant change EPWA 071700Z 06005KT 340V120 CAVOK 21/08 Q1023 NOSIG
VFR 22°C / 8°C 50º variable 010º to 100º 6kt >10km - Clouds and Visibility OK 1023 No Significant change EPWA 071630Z 05006KT 010V100 CAVOK 22/08 Q1023 NOSIG
VFR 22°C / 8°C 10º variable 280º to 070º 4kt >10km - Clouds and Visibility OK 1023 No Significant change EPWA 071600Z 01004KT 280V070 CAVOK 22/08 Q1023 NOSIG
VFR 22°C / 8°C 60º variable 010º to 100º 4kt >10km - Clouds and Visibility OK 1023 No Significant change EPWA 071530Z 06004KT 010V100 CAVOK 22/08 Q1023 NOSIG
VFR 21°C / 7°C 20º variable 340º to 060º 6kt >10km - Clouds and Visibility OK 1023 No Significant change EPWA 071500Z 02006KT 340V060 CAVOK 21/07 Q1023 NOSIG
VFR 22°C / 8°C 70º variable 040º to 110º 7kt >10km - Clouds and Visibility OK 1023 No Significant change EPWA 071430Z 07007KT 040V110 CAVOK 22/08 Q1023 NOSIG
VFR 22°C / 7°C variable 5kt >10km - Clouds and Visibility OK 1024 No Significant change EPWA 071400Z VRB05KT CAVOK 22/07 Q1024 NOSIG
VFR 22°C / 6°C 20º variable 320º to 100º 6kt >10km - Clouds and Visibility OK 1024 No Significant change EPWA 071330Z 02006KT 320V100 CAVOK 22/06 Q1024 NOSIG
VFR 22°C / 7°C variable 2kt >10km - Clouds and Visibility OK 1024 No Significant change EPWA 071300Z VRB02KT CAVOK 22/07 Q1024 NOSIG
VFR 21°C / 8°C variable 4kt >10km - Clouds and Visibility OK 1024 No Significant change EPWA 071230Z VRB04KT CAVOK 21/08 Q1024 NOSIG
VFR 21°C / 7°C variable 3kt >10km - Clouds and Visibility OK 1024 No Significant change EPWA 071200Z VRB03KT CAVOK 21/07 Q1024 NOSIG
VFR 20°C / 8°C 310º variable 260º to 030º 5kt >10km - Clouds and Visibility OK 1025 No Significant change EPWA 071130Z 31005KT 260V030 CAVOK 20/08 Q1025 NOSIG
VFR 20°C / 8°C 340º variable 290º to 030º 6kt >10km - Clouds and Visibility OK 1025 No Significant change EPWA 071100Z 34006KT 290V030 CAVOK 20/08 Q1025 NOSIG
VFR 20°C / 8°C 300º variable 260º to 350º 7kt >10km - Clouds and Visibility OK 1025 No Significant change EPWA 071030Z 30007KT 260V350 CAVOK 20/08 Q1025 NOSIG
VFR 20°C / 8°C variable 4kt >10km - Few Clouds 4800ft 1025 No Significant change EPWA 071000Z VRB04KT 9999 FEW048 20/08 Q1025 NOSIG
VFR 19°C / 9°C 320º variable 230º to 040º 6kt >10km - Few Clouds 4400ft 1025 No Significant change EPWA 070930Z 32006KT 230V040 9999 FEW044 19/09 Q1025 NOSIG
VFR 19°C / 8°C variable 5kt >10km - Few Clouds 4000ft 1026 No Significant change EPWA 070900Z VRB05KT 9999 FEW040 19/08 Q1026 NOSIG
VFR 18°C / 8°C 320º variable 280º to 350º 6kt >10km - Few Clouds 4000ft 1026 No Significant change EPWA 070830Z 32006KT 280V350 9999 FEW040 18/08 Q1026 NOSIG
VFR 18°C / 9°C 300º variable 270º to 360º 6kt >10km - Few Clouds 3500ft 1026 No Significant change EPWA 070800Z 30006KT 270V360 9999 FEW035 18/09 Q1026 NOSIG
VFR 18°C / 10°C 350º variable 300º to 030º 4kt >10km - Few Clouds 3300ft 1026 No Significant change EPWA 070730Z 35004KT 300V030 9999 FEW033 18/10 Q1026 NOSIG
VFR 17°C / 9°C 330º 6kt >10km - Few Clouds 3000ft 1026 No Significant change EPWA 070700Z 33006KT 9999 FEW030 17/09 Q1026 NOSIG

VFR

18°C / 9°C

[Più]
Vento 100º 4kt
Visibilità >10km
Meteo -
Nuvole Clouds and Visibility OK
Pressione 1023
Cambiamento No Significant change
Grezzo EPWA 071830Z 10004KT CAVOK 18/09 Q1023 NOSIG

VFR

21°C / 8°C

[Più]
Vento 100º 5kt
Visibilità >10km
Meteo -
Nuvole Clouds and Visibility OK
Pressione 1023
Cambiamento No Significant change
Grezzo EPWA 071800Z 10005KT CAVOK 21/08 Q1023 NOSIG

VFR

21°C / 8°C

[Più]
Vento 100º variable 050º to 130º 5kt
Visibilità >10km
Meteo -
Nuvole Clouds and Visibility OK
Pressione 1023
Cambiamento No Significant change
Grezzo EPWA 071730Z 10005KT 050V130 CAVOK 21/08 Q1023 NOSIG

VFR

21°C / 8°C

[Più]
Vento 60º variable 340º to 120º 5kt
Visibilità >10km
Meteo -
Nuvole Clouds and Visibility OK
Pressione 1023
Cambiamento No Significant change
Grezzo EPWA 071700Z 06005KT 340V120 CAVOK 21/08 Q1023 NOSIG

VFR

22°C / 8°C

[Più]
Vento 50º variable 010º to 100º 6kt
Visibilità >10km
Meteo -
Nuvole Clouds and Visibility OK
Pressione 1023
Cambiamento No Significant change
Grezzo EPWA 071630Z 05006KT 010V100 CAVOK 22/08 Q1023 NOSIG

VFR

22°C / 8°C

[Più]
Vento 10º variable 280º to 070º 4kt
Visibilità >10km
Meteo -
Nuvole Clouds and Visibility OK
Pressione 1023
Cambiamento No Significant change
Grezzo EPWA 071600Z 01004KT 280V070 CAVOK 22/08 Q1023 NOSIG

VFR

22°C / 8°C

[Più]
Vento 60º variable 010º to 100º 4kt
Visibilità >10km
Meteo -
Nuvole Clouds and Visibility OK
Pressione 1023
Cambiamento No Significant change
Grezzo EPWA 071530Z 06004KT 010V100 CAVOK 22/08 Q1023 NOSIG

VFR

21°C / 7°C

[Più]
Vento 20º variable 340º to 060º 6kt
Visibilità >10km
Meteo -
Nuvole Clouds and Visibility OK
Pressione 1023
Cambiamento No Significant change
Grezzo EPWA 071500Z 02006KT 340V060 CAVOK 21/07 Q1023 NOSIG

VFR

22°C / 8°C

[Più]
Vento 70º variable 040º to 110º 7kt
Visibilità >10km
Meteo -
Nuvole Clouds and Visibility OK
Pressione 1023
Cambiamento No Significant change
Grezzo EPWA 071430Z 07007KT 040V110 CAVOK 22/08 Q1023 NOSIG

VFR

22°C / 7°C

[Più]
Vento variable 5kt
Visibilità >10km
Meteo -
Nuvole Clouds and Visibility OK
Pressione 1024
Cambiamento No Significant change
Grezzo EPWA 071400Z VRB05KT CAVOK 22/07 Q1024 NOSIG

VFR

22°C / 6°C

[Più]
Vento 20º variable 320º to 100º 6kt
Visibilità >10km
Meteo -
Nuvole Clouds and Visibility OK
Pressione 1024
Cambiamento No Significant change
Grezzo EPWA 071330Z 02006KT 320V100 CAVOK 22/06 Q1024 NOSIG

VFR

22°C / 7°C

[Più]
Vento variable 2kt
Visibilità >10km
Meteo -
Nuvole Clouds and Visibility OK
Pressione 1024
Cambiamento No Significant change
Grezzo EPWA 071300Z VRB02KT CAVOK 22/07 Q1024 NOSIG

VFR

21°C / 8°C

[Più]
Vento variable 4kt
Visibilità >10km
Meteo -
Nuvole Clouds and Visibility OK
Pressione 1024
Cambiamento No Significant change
Grezzo EPWA 071230Z VRB04KT CAVOK 21/08 Q1024 NOSIG

VFR

21°C / 7°C

[Più]
Vento variable 3kt
Visibilità >10km
Meteo -
Nuvole Clouds and Visibility OK
Pressione 1024
Cambiamento No Significant change
Grezzo EPWA 071200Z VRB03KT CAVOK 21/07 Q1024 NOSIG

VFR

20°C / 8°C

[Più]
Vento 310º variable 260º to 030º 5kt
Visibilità >10km
Meteo -
Nuvole Clouds and Visibility OK
Pressione 1025
Cambiamento No Significant change
Grezzo EPWA 071130Z 31005KT 260V030 CAVOK 20/08 Q1025 NOSIG

VFR

20°C / 8°C

[Più]
Vento 340º variable 290º to 030º 6kt
Visibilità >10km
Meteo -
Nuvole Clouds and Visibility OK
Pressione 1025
Cambiamento No Significant change
Grezzo EPWA 071100Z 34006KT 290V030 CAVOK 20/08 Q1025 NOSIG

VFR

20°C / 8°C

[Più]
Vento 300º variable 260º to 350º 7kt
Visibilità >10km
Meteo -
Nuvole Clouds and Visibility OK
Pressione 1025
Cambiamento No Significant change
Grezzo EPWA 071030Z 30007KT 260V350 CAVOK 20/08 Q1025 NOSIG

VFR

20°C / 8°C

[Più]
Vento variable 4kt
Visibilità >10km
Meteo -
Nuvole Few Clouds 4800ft
Pressione 1025
Cambiamento No Significant change
Grezzo EPWA 071000Z VRB04KT 9999 FEW048 20/08 Q1025 NOSIG

VFR

19°C / 9°C

[Più]
Vento 320º variable 230º to 040º 6kt
Visibilità >10km
Meteo -
Nuvole Few Clouds 4400ft
Pressione 1025
Cambiamento No Significant change
Grezzo EPWA 070930Z 32006KT 230V040 9999 FEW044 19/09 Q1025 NOSIG

VFR

19°C / 8°C

[Più]
Vento variable 5kt
Visibilità >10km
Meteo -
Nuvole Few Clouds 4000ft
Pressione 1026
Cambiamento No Significant change
Grezzo EPWA 070900Z VRB05KT 9999 FEW040 19/08 Q1026 NOSIG

VFR

18°C / 8°C

[Più]
Vento 320º variable 280º to 350º 6kt
Visibilità >10km
Meteo -
Nuvole Few Clouds 4000ft
Pressione 1026
Cambiamento No Significant change
Grezzo EPWA 070830Z 32006KT 280V350 9999 FEW040 18/08 Q1026 NOSIG

VFR

18°C / 9°C

[Più]
Vento 300º variable 270º to 360º 6kt
Visibilità >10km
Meteo -
Nuvole Few Clouds 3500ft
Pressione 1026
Cambiamento No Significant change
Grezzo EPWA 070800Z 30006KT 270V360 9999 FEW035 18/09 Q1026 NOSIG

VFR

18°C / 10°C

[Più]
Vento 350º variable 300º to 030º 4kt
Visibilità >10km
Meteo -
Nuvole Few Clouds 3300ft
Pressione 1026
Cambiamento No Significant change
Grezzo EPWA 070730Z 35004KT 300V030 9999 FEW033 18/10 Q1026 NOSIG

VFR

17°C / 9°C

[Più]
Vento 330º 6kt
Visibilità >10km
Meteo -
Nuvole Few Clouds 3000ft
Pressione 1026
Cambiamento No Significant change
Grezzo EPWA 070700Z 33006KT 9999 FEW030 17/09 Q1026 NOSIG

TAF per 52.17°N 20.97°E (EPWA)

From till


From till Wind variable 5kt. Visibility 10km or more. Nil Significant Cloud.

Grezzo: TAF EPWA 071730Z 0718/0818 VRB05KT CAVOK

Radar e nowcasting per 52.17°N 20.97°E

Pioviggine
Lieve
Moderato
Forte
Molto forte
Grandine

Il segnaposto è situato a 52.17°N 20.97°E. Questa animazione mostra il radar delle precipitazioni per l'ultima ora, nonché una previsione 1h. Una pioviggine o una leggera caduta di neve potrebbero essere invisibili per il radar. L'intensità delle precipitazioni è codificata a colori, dal blu chiaro all'arancione.

Tempo in atto per 52.17°N 20.97°E: immagine satellitare e pioggia

Il segnaposto è situato a 52.17°N 20.97°E. [Più]

L'immagine satellitare in tempo reale combina la luce visibile durante il giorno con la radiazione infrarossa durante la notte. Di notte l'immagine non è scura poiché i raggi infrarossi possono rilevare differenze di temperatura. Purtroppo, le nuvole basse e la nebbia sono difficili da distinguere dalla temperatura del suolo e possono pertanto essere quasi invisibili durante la notte. Le immagini satellitari Meteosat per l'Europa vengono aggiornate in tempo reale ogni 5 minuti. Le immagini GOES-16 / GOES-17 (Nord e Sud America) e Himawari (Asia) vengono aggiornate ogni 10 minuti.

Le precipitazioni sono stimate da radar e satellite. I calcoli delle precipitazioni dai satelliti sono meno accurate di notte che durante il giorno. Le croci arancioni identificano i fulmini caduti (in Europa).

Copyright 2022 EUMETSAT / meteoblue. Fulminazioni fornite da nowcast.

Tornare su